createdAt,value
2018-05-11T00:00:14.179Z,55.20
2018-05-11T00:00:52.151Z,55.10
2018-05-11T00:01:29.529Z,55.10
2018-05-11T00:02:07.628Z,55.00
2018-05-11T00:02:44.846Z,55.00
2018-05-11T00:03:22.135Z,54.90
2018-05-11T00:03:59.414Z,54.90
2018-05-11T00:04:36.705Z,54.90
2018-05-11T00:05:14.130Z,54.80
2018-05-11T00:05:52.208Z,54.90
2018-05-11T00:06:30.390Z,55.00
2018-05-11T00:07:07.685Z,54.90
2018-05-11T00:07:45.725Z,54.90
2018-05-11T00:08:23.961Z,54.90
2018-05-11T00:09:01.939Z,54.90
2018-05-11T00:09:39.205Z,54.90
2018-05-11T00:10:16.578Z,54.90
2018-05-11T00:10:54.674Z,55.00
2018-05-11T00:11:32.139Z,55.00
2018-05-11T00:12:09.621Z,55.20
2018-05-11T00:12:46.854Z,55.10
2018-05-11T00:13:25.012Z,55.30
2018-05-11T00:14:02.369Z,55.20
2018-05-11T00:14:39.599Z,55.20
2018-05-11T00:15:16.787Z,55.30
2018-05-11T00:15:54.042Z,55.30
2018-05-11T00:16:31.448Z,55.30
2018-05-11T00:17:08.844Z,56.00
2018-05-11T00:17:46.942Z,55.40
2018-05-11T00:18:24.206Z,55.30
2018-05-11T00:19:01.554Z,55.20
2018-05-11T00:19:39.024Z,55.20
2018-05-11T00:20:16.522Z,55.40
2018-05-11T00:20:53.917Z,55.30
2018-05-11T00:21:32.199Z,55.60
2018-05-11T00:22:10.308Z,55.80
2018-05-11T00:22:47.652Z,55.70
2018-05-11T00:23:24.906Z,55.70
2018-05-11T00:24:03.189Z,55.60
2018-05-11T00:24:41.164Z,55.60
2018-05-11T00:25:18.499Z,55.60
2018-05-11T00:25:55.763Z,55.50
2018-05-11T00:26:33.180Z,55.40
2018-05-11T00:27:10.504Z,55.40
2018-05-11T00:27:47.911Z,55.40
2018-05-11T00:28:25.308Z,55.40
2018-05-11T00:29:02.590Z,55.40
2018-05-11T00:29:39.990Z,55.30
2018-05-11T00:30:17.409Z,55.20
2018-05-11T00:30:54.891Z,55.30
2018-05-11T00:31:32.277Z,55.30
2018-05-11T00:32:09.737Z,55.40
2018-05-11T00:32:47.221Z,55.40
2018-05-11T00:33:24.613Z,55.40
2018-05-11T00:34:02.091Z,55.40
2018-05-11T00:34:39.461Z,55.40
2018-05-11T00:35:16.921Z,55.30
2018-05-11T00:35:55.099Z,55.60
2018-05-11T00:36:33.328Z,55.70
2018-05-11T00:37:10.611Z,55.70
2018-05-11T00:37:47.964Z,55.70
2018-05-11T00:38:25.412Z,55.70
2018-05-11T00:39:02.773Z,55.70
2018-05-11T00:39:40.243Z,55.70
2018-05-11T00:40:17.699Z,55.70
2018-05-11T00:40:55.003Z,55.70
2018-05-11T00:41:32.240Z,55.70
2018-05-11T00:42:10.406Z,55.60
2018-05-11T00:42:47.605Z,55.60
2018-05-11T00:43:24.981Z,55.60
2018-05-11T00:44:03.235Z,55.60
2018-05-11T00:44:40.484Z,55.50
2018-05-11T00:45:17.710Z,55.50
2018-05-11T00:45:55.972Z,55.50
2018-05-11T00:46:34.018Z,55.40
2018-05-11T00:47:11.527Z,55.30
2018-05-11T00:47:49.645Z,55.50
2018-05-11T00:48:27.834Z,55.40
2018-05-11T00:49:05.062Z,55.40
2018-05-11T00:49:43.184Z,55.50
2018-05-11T00:50:20.531Z,55.50
2018-05-11T00:50:57.840Z,55.50
2018-05-11T00:51:36.057Z,55.40
2018-05-11T00:52:13.418Z,55.40
2018-05-11T00:52:51.633Z,55.40
2018-05-11T00:53:28.881Z,55.40
2018-05-11T00:54:06.327Z,55.40
2018-05-11T00:54:44.323Z,55.30
2018-05-11T00:55:22.479Z,55.20
2018-05-11T00:55:59.803Z,55.10
2018-05-11T00:56:37.936Z,55.20
2018-05-11T00:57:15.495Z,55.20
2018-05-11T00:57:53.639Z,55.30
2018-05-11T00:58:31.817Z,55.30
2018-05-11T00:59:09.207Z,55.30
2018-05-11T00:59:47.182Z,55.40
2018-05-11T01:00:24.535Z,55.30
2018-05-11T01:01:01.765Z,55.30
2018-05-11T01:01:39.031Z,55.30
2018-05-11T01:02:17.202Z,55.30
2018-05-11T01:02:54.534Z,55.30
2018-05-11T01:03:31.787Z,55.30
2018-05-11T01:04:09.105Z,55.30
2018-05-11T01:04:47.219Z,55.20
2018-05-11T01:05:24.540Z,55.20
2018-05-11T01:06:02.786Z,55.00
2018-05-11T01:06:41.086Z,55.00
2018-05-11T01:07:18.366Z,55.00
2018-05-11T01:07:56.552Z,55.00
2018-05-11T01:08:34.757Z,55.00
2018-05-11T01:09:12.011Z,55.00
2018-05-11T01:09:50.206Z,55.10
2018-05-11T01:10:27.449Z,55.10
2018-05-11T01:11:05.699Z,55.00
2018-05-11T01:11:43.895Z,55.00
2018-05-11T01:12:21.431Z,55.00
2018-05-11T01:12:58.755Z,55.10
2018-05-11T01:13:36.806Z,55.10
2018-05-11T01:14:15.066Z,55.00
2018-05-11T01:14:52.318Z,55.00
2018-05-11T01:15:29.490Z,54.90
2018-05-11T01:16:06.791Z,54.90
2018-05-11T01:16:44.348Z,54.80
2018-05-11T01:17:22.414Z,54.80
2018-05-11T01:18:00.056Z,54.80
2018-05-11T01:18:37.425Z,54.70
2018-05-11T01:19:14.618Z,54.70
2018-05-11T01:19:52.056Z,54.70
2018-05-11T01:20:29.342Z,54.80
2018-05-11T01:21:06.545Z,54.80
2018-05-11T01:21:44.001Z,54.70
2018-05-11T01:22:22.251Z,54.70
2018-05-11T01:23:00.338Z,54.70
2018-05-11T01:23:38.512Z,54.70
2018-05-11T01:24:16.621Z,54.60
2018-05-11T01:24:53.981Z,54.60
2018-05-11T01:25:31.393Z,54.50
2018-05-11T01:26:08.678Z,54.40
2018-05-11T01:26:45.981Z,54.40
2018-05-11T01:27:23.293Z,54.30
2018-05-11T01:28:00.548Z,54.20
2018-05-11T01:28:38.049Z,54.30
2018-05-11T01:29:15.385Z,54.20
2018-05-11T01:29:52.682Z,54.30
2018-05-11T01:30:30.054Z,54.20
2018-05-11T01:31:07.232Z,54.10
2018-05-11T01:31:44.673Z,54.20
2018-05-11T01:32:22.864Z,54.00
2018-05-11T01:33:00.914Z,54.10
2018-05-11T01:33:38.225Z,54.10
2018-05-11T01:34:15.609Z,54.00
2018-05-11T01:34:53.083Z,54.00
2018-05-11T01:35:30.422Z,53.90
2018-05-11T01:36:07.714Z,53.90
2018-05-11T01:36:45.799Z,53.90
2018-05-11T01:37:23.062Z,53.90
2018-05-11T01:38:00.424Z,54.00
2018-05-11T01:38:37.874Z,54.00
2018-05-11T01:39:15.148Z,53.90
2018-05-11T01:39:52.496Z,54.00
2018-05-11T01:40:30.784Z,54.00
2018-05-11T01:41:08.857Z,53.80
2018-05-11T01:41:46.265Z,53.80
2018-05-11T01:42:23.688Z,53.70
2018-05-11T01:43:01.727Z,53.80
2018-05-11T01:43:39.989Z,53.80
2018-05-11T01:44:18.211Z,53.80
2018-05-11T01:44:55.425Z,53.80
2018-05-11T01:45:33.679Z,53.80
2018-05-11T01:46:11.022Z,53.80
2018-05-11T01:46:49.250Z,53.70
2018-05-11T01:47:26.554Z,53.70
2018-05-11T01:48:03.859Z,53.70
2018-05-11T01:48:41.303Z,53.80
2018-05-11T01:49:18.666Z,53.80
2018-05-11T01:49:56.136Z,53.70
2018-05-11T01:50:33.413Z,53.80
2018-05-11T01:51:10.925Z,53.70
2018-05-11T01:51:49.015Z,53.70
2018-05-11T01:52:27.114Z,53.70
2018-05-11T01:53:04.574Z,53.60
2018-05-11T01:53:42.580Z,53.60
2018-05-11T01:54:20.064Z,53.60
2018-05-11T01:54:57.337Z,53.60
2018-05-11T01:55:35.457Z,53.80
2018-05-11T01:56:13.628Z,53.80
2018-05-11T01:56:50.985Z,53.70
2018-05-11T01:57:28.413Z,53.90
2018-05-11T01:58:05.903Z,53.70
2018-05-11T01:58:43.159Z,53.80
2018-05-11T01:59:20.370Z,53.90
2018-05-11T01:59:57.657Z,53.90
2018-05-11T02:00:35.082Z,54.00
2018-05-11T02:01:12.535Z,53.90
2018-05-11T02:01:50.631Z,53.70
2018-05-11T02:02:27.974Z,53.70
2018-05-11T02:03:06.212Z,53.70
2018-05-11T02:03:44.274Z,53.80
2018-05-11T02:04:21.633Z,53.80
2018-05-11T02:04:58.922Z,53.80
2018-05-11T02:05:37.038Z,53.90
2018-05-11T02:06:14.408Z,53.90
2018-05-11T02:06:52.639Z,53.90
2018-05-11T02:07:30.064Z,53.90
2018-05-11T02:08:07.396Z,53.70
2018-05-11T02:08:45.459Z,53.70
2018-05-11T02:09:22.779Z,53.60
2018-05-11T02:10:00.388Z,53.60
2018-05-11T02:10:38.418Z,53.50
2018-05-11T02:11:16.405Z,53.50
2018-05-11T02:11:53.669Z,53.50
2018-05-11T02:12:30.893Z,53.50
2018-05-11T02:13:08.216Z,53.40
2018-05-11T02:13:46.271Z,53.40
2018-05-11T02:14:23.563Z,53.40
2018-05-11T02:15:00.944Z,53.40
2018-05-11T02:15:39.196Z,53.30
2018-05-11T02:16:17.253Z,53.30
2018-05-11T02:16:54.605Z,53.30
2018-05-11T02:17:32.736Z,53.30
2018-05-11T02:18:10.124Z,53.20
2018-05-11T02:18:48.293Z,53.20
2018-05-11T02:19:25.659Z,53.20
2018-05-11T02:20:03.866Z,53.20
2018-05-11T02:20:41.957Z,53.00
2018-05-11T02:21:19.401Z,53.00
2018-05-11T02:21:56.641Z,53.00
2018-05-11T02:22:34.814Z,53.00
2018-05-11T02:23:12.137Z,53.00
2018-05-11T02:23:49.472Z,53.00
2018-05-11T02:24:27.555Z,52.90
2018-05-11T02:25:05.649Z,52.90
2018-05-11T02:25:42.862Z,52.80
2018-05-11T02:26:20.322Z,52.70
2018-05-11T02:26:58.425Z,52.80
2018-05-11T02:27:35.745Z,52.80
2018-05-11T02:28:13.117Z,52.70
2018-05-11T02:28:50.615Z,52.70
2018-05-11T02:29:28.066Z,52.60
2018-05-11T02:30:05.558Z,52.60
2018-05-11T02:30:42.920Z,52.70
2018-05-11T02:31:20.974Z,52.70
2018-05-11T02:31:58.185Z,52.60
2018-05-11T02:32:35.616Z,52.50
2018-05-11T02:33:12.866Z,52.50
2018-05-11T02:33:51.694Z,52.50
2018-05-11T02:34:29.885Z,52.60
2018-05-11T02:35:07.854Z,52.80
2018-05-11T02:35:45.965Z,53.00
2018-05-11T02:36:23.269Z,53.00
2018-05-11T02:37:01.246Z,52.80
2018-05-11T02:37:38.597Z,52.90
2018-05-11T02:38:16.728Z,53.10
2018-05-11T02:38:54.155Z,53.10
2018-05-11T02:39:32.277Z,53.10
2018-05-11T02:40:09.577Z,53.10
2018-05-11T02:40:47.720Z,53.20
2018-05-11T02:41:25.211Z,53.00
2018-05-11T02:42:02.507Z,53.10
2018-05-11T02:42:40.023Z,53.20
2018-05-11T02:43:17.394Z,53.30
2018-05-11T02:43:54.897Z,53.20
2018-05-11T02:44:32.306Z,53.20
2018-05-11T02:45:10.621Z,53.30
2018-05-11T02:45:47.935Z,53.10
2018-05-11T02:46:25.263Z,53.30
2018-05-11T02:47:03.472Z,53.30
2018-05-11T02:47:40.987Z,53.30
2018-05-11T02:48:18.483Z,53.30
2018-05-11T02:48:56.573Z,53.40
2018-05-11T02:49:33.953Z,53.40
2018-05-11T02:50:11.291Z,53.40
2018-05-11T02:50:48.684Z,53.30
2018-05-11T02:51:25.995Z,53.30
2018-05-11T02:52:03.261Z,53.30
2018-05-11T02:52:40.669Z,53.20
2018-05-11T02:53:18.660Z,53.40
2018-05-11T02:53:55.944Z,53.40
2018-05-11T02:54:34.001Z,53.20
2018-05-11T02:55:11.469Z,53.20
2018-05-11T02:55:48.898Z,53.20
2018-05-11T02:56:26.413Z,53.10
2018-05-11T02:57:03.605Z,53.10
2018-05-11T02:57:40.942Z,53.20
2018-05-11T02:58:18.432Z,53.20
2018-05-11T02:58:55.804Z,53.20
2018-05-11T02:59:34.028Z,53.40
2018-05-11T03:00:12.239Z,53.40
2018-05-11T03:00:50.524Z,53.50
2018-05-11T03:01:28.739Z,53.50
2018-05-11T03:02:06.118Z,53.40
2018-05-11T03:02:44.197Z,53.50
2018-05-11T03:03:21.551Z,53.40
2018-05-11T03:03:59.769Z,53.50
2018-05-11T03:04:37.118Z,53.50
2018-05-11T03:05:14.427Z,53.50
2018-05-11T03:05:51.817Z,53.20
2018-05-11T03:06:29.878Z,53.40
2018-05-11T03:07:07.888Z,53.40
2018-05-11T03:07:45.311Z,53.40
2018-05-11T03:08:22.727Z,53.40
2018-05-11T03:09:00.835Z,53.60
2018-05-11T03:09:38.929Z,53.60
2018-05-11T03:10:16.197Z,53.60
2018-05-11T03:10:54.314Z,53.50
2018-05-11T03:11:31.697Z,53.50
2018-05-11T03:12:09.900Z,53.40
2018-05-11T03:12:47.344Z,53.40
2018-05-11T03:13:25.436Z,53.50
2018-05-11T03:14:03.642Z,53.50
2018-05-11T03:14:40.992Z,53.40
2018-05-11T03:15:19.077Z,53.70
2018-05-11T03:15:57.218Z,53.30
2018-05-11T03:16:34.516Z,53.30
2018-05-11T03:17:11.928Z,53.40
2018-05-11T03:17:49.335Z,53.30
2018-05-11T03:18:27.585Z,53.30
2018-05-11T03:19:05.813Z,53.80
2018-05-11T03:19:43.052Z,53.20
2018-05-11T03:20:21.294Z,53.00
2018-05-11T03:20:59.418Z,53.20
2018-05-11T03:21:36.731Z,53.10
2018-05-11T03:22:14.943Z,53.10
2018-05-11T03:22:52.348Z,53.10
2018-05-11T03:23:29.599Z,53.80
2018-05-11T03:24:07.715Z,52.80
2018-05-11T03:24:45.036Z,52.80
2018-05-11T03:25:22.472Z,52.80
2018-05-11T03:26:00.551Z,52.90
2018-05-11T03:26:38.734Z,52.90
2018-05-11T03:27:16.835Z,52.90
2018-05-11T03:27:54.258Z,52.90
2018-05-11T03:28:32.320Z,52.80
2018-05-11T03:29:09.659Z,52.90
2018-05-11T03:29:48.590Z,52.90
2018-05-11T03:30:25.923Z,52.90
2018-05-11T03:31:04.094Z,53.50
2018-05-11T03:31:41.326Z,52.80
2018-05-11T03:32:18.694Z,52.90
2018-05-11T03:32:56.017Z,52.80
2018-05-11T03:33:33.434Z,52.90
2018-05-11T03:34:10.859Z,52.90
2018-05-11T03:34:48.953Z,52.80
2018-05-11T03:35:26.157Z,52.80
2018-05-11T03:36:04.421Z,52.70
2018-05-11T03:36:42.575Z,52.90
2018-05-11T03:37:20.791Z,52.90
2018-05-11T03:37:58.168Z,52.90
2018-05-11T03:38:36.470Z,52.90
2018-05-11T03:39:14.665Z,52.80
2018-05-11T03:39:51.993Z,52.80
2018-05-11T03:40:29.431Z,52.70
2018-05-11T03:41:06.772Z,52.70
2018-05-11T03:41:43.988Z,52.80
2018-05-11T03:42:22.162Z,52.70
2018-05-11T03:43:00.216Z,52.70
2018-05-11T03:43:37.714Z,52.70
2018-05-11T03:44:15.095Z,52.60
2018-05-11T03:44:52.548Z,52.50
2018-05-11T03:45:29.968Z,52.40
2018-05-11T03:46:07.285Z,52.40
2018-05-11T03:46:44.685Z,52.30
2018-05-11T03:47:22.128Z,52.30
2018-05-11T03:47:59.474Z,52.40
2018-05-11T03:48:36.812Z,52.30
2018-05-11T03:49:14.277Z,52.30
2018-05-11T03:49:52.537Z,52.40
2018-05-11T03:50:29.867Z,52.40
2018-05-11T03:51:07.131Z,52.40
2018-05-11T03:51:45.382Z,52.30
2018-05-11T03:52:23.461Z,52.20
2018-05-11T03:53:00.850Z,52.20
2018-05-11T03:53:38.136Z,52.30
2018-05-11T03:54:16.215Z,52.40
2018-05-11T03:54:53.559Z,52.40
2018-05-11T03:55:30.974Z,52.40
2018-05-11T03:56:08.197Z,52.30
2018-05-11T03:56:45.486Z,52.50
2018-05-11T03:57:22.941Z,52.50
2018-05-11T03:58:01.000Z,52.40
2018-05-11T03:58:38.954Z,52.30
2018-05-11T03:59:16.333Z,52.30
2018-05-11T03:59:53.584Z,52.30
2018-05-11T04:00:31.754Z,52.30
2018-05-11T04:01:09.067Z,52.30
2018-05-11T04:01:46.524Z,52.30
2018-05-11T04:02:24.603Z,52.40
2018-05-11T04:03:01.942Z,52.30
2018-05-11T04:03:39.417Z,52.30
2018-05-11T04:04:17.078Z,52.30
2018-05-11T04:04:54.522Z,52.30
2018-05-11T04:05:32.610Z,52.30
2018-05-11T04:06:09.921Z,52.30
2018-05-11T04:06:47.975Z,52.30
2018-05-11T04:07:25.985Z,52.30
2018-05-11T04:08:03.324Z,52.20
2018-05-11T04:08:40.802Z,52.30
2018-05-11T04:09:19.048Z,52.40
2018-05-11T04:09:56.453Z,52.40
2018-05-11T04:10:34.699Z,52.30
2018-05-11T04:11:12.886Z,52.30
2018-05-11T04:11:50.176Z,52.30
2018-05-11T04:12:27.494Z,52.20
2018-05-11T04:13:04.765Z,52.20
2018-05-11T04:13:42.462Z,52.20
2018-05-11T04:14:19.946Z,52.10
2018-05-11T04:14:57.328Z,52.10
2018-05-11T04:15:34.603Z,52.10
2018-05-11T04:16:11.831Z,52.00
2018-05-11T04:16:49.034Z,52.00
2018-05-11T04:17:26.468Z,52.00
2018-05-11T04:18:04.580Z,52.00
2018-05-11T04:18:41.818Z,51.90
2018-05-11T04:19:19.932Z,51.80
2018-05-11T04:19:57.211Z,51.80
2018-05-11T04:20:35.289Z,51.80
2018-05-11T04:21:12.799Z,51.80
2018-05-11T04:21:50.052Z,52.20
2018-05-11T04:22:28.287Z,51.90
2018-05-11T04:23:05.493Z,51.80
2018-05-11T04:23:43.585Z,52.00
2018-05-11T04:24:20.866Z,51.90
2018-05-11T04:24:58.145Z,52.00
2018-05-11T04:25:35.365Z,51.90
2018-05-11T04:26:13.407Z,51.80
2018-05-11T04:26:50.777Z,51.80
2018-05-11T04:27:28.882Z,51.90
2018-05-11T04:28:06.232Z,51.90
2018-05-11T04:28:44.452Z,51.80
2018-05-11T04:29:21.748Z,51.70
2018-05-11T04:29:58.965Z,51.70
2018-05-11T04:30:37.091Z,51.70
2018-05-11T04:31:14.442Z,51.70
2018-05-11T04:31:52.602Z,51.70
2018-05-11T04:32:29.992Z,51.70
2018-05-11T04:33:07.430Z,51.70
2018-05-11T04:33:44.875Z,51.70
2018-05-11T04:34:22.224Z,51.60
2018-05-11T04:35:00.242Z,51.70
2018-05-11T04:35:37.602Z,51.60
2018-05-11T04:36:15.079Z,51.70
2018-05-11T04:36:52.563Z,51.70
2018-05-11T04:37:30.002Z,51.60
2018-05-11T04:38:08.170Z,51.50
2018-05-11T04:38:46.256Z,51.60
2018-05-11T04:39:23.643Z,51.50
2018-05-11T04:40:01.090Z,51.50
2018-05-11T04:40:38.348Z,51.40
2018-05-11T04:41:15.794Z,51.40
2018-05-11T04:41:54.047Z,51.30
2018-05-11T04:42:31.208Z,51.30
2018-05-11T04:43:08.693Z,51.30
2018-05-11T04:43:46.039Z,51.30
2018-05-11T04:44:24.078Z,51.20
2018-05-11T04:45:02.167Z,51.20
2018-05-11T04:45:39.611Z,51.20
2018-05-11T04:46:17.056Z,51.20
2018-05-11T04:46:54.459Z,51.10
2018-05-11T04:47:31.822Z,51.20
2018-05-11T04:48:09.995Z,51.20
2018-05-11T04:48:48.065Z,51.10
2018-05-11T04:49:25.325Z,51.10
2018-05-11T04:50:03.531Z,51.00
2018-05-11T04:50:41.756Z,51.00
2018-05-11T04:51:19.090Z,51.10
2018-05-11T04:51:56.361Z,51.10
2018-05-11T04:52:33.641Z,51.10
2018-05-11T04:53:10.942Z,51.00
2018-05-11T04:53:49.044Z,51.00
2018-05-11T04:54:27.370Z,51.10
2018-05-11T04:55:05.419Z,51.00
2018-05-11T04:55:42.742Z,51.00
2018-05-11T04:56:20.178Z,51.10
2018-05-11T04:56:58.163Z,51.10
2018-05-11T04:57:35.415Z,51.00
2018-05-11T04:58:12.802Z,51.00
2018-05-11T04:58:50.162Z,51.10
2018-05-11T04:59:28.311Z,51.00
2018-05-11T05:00:05.601Z,51.00
2018-05-11T05:00:43.107Z,50.60
2018-05-11T05:01:20.506Z,51.10
2018-05-11T05:01:57.884Z,51.00
2018-05-11T05:02:35.147Z,51.00
2018-05-11T05:03:12.491Z,51.00
2018-05-11T05:03:49.922Z,51.00
2018-05-11T05:04:28.014Z,51.10
2018-05-11T05:05:06.221Z,51.10
2018-05-11T05:05:43.691Z,51.00
2018-05-11T05:06:21.885Z,51.10
2018-05-11T05:06:59.197Z,51.10
2018-05-11T05:07:37.286Z,51.00
2018-05-11T05:08:14.506Z,51.00
2018-05-11T05:08:51.761Z,51.00
2018-05-11T05:09:30.725Z,51.00
2018-05-11T05:10:08.043Z,51.00
2018-05-11T05:10:45.473Z,51.00
2018-05-11T05:11:22.790Z,51.00
2018-05-11T05:12:00.024Z,50.90
2018-05-11T05:12:38.101Z,50.80
2018-05-11T05:13:15.327Z,50.80
2018-05-11T05:13:52.650Z,50.70
2018-05-11T05:14:30.742Z,50.60
2018-05-11T05:15:08.078Z,50.60
2018-05-11T05:15:46.319Z,50.60
2018-05-11T05:16:23.665Z,50.60
2018-05-11T05:17:01.783Z,50.70
2018-05-11T05:17:39.022Z,50.70
2018-05-11T05:18:16.450Z,50.60
2018-05-11T05:18:54.526Z,50.50
2018-05-11T05:19:31.948Z,50.50
2018-05-11T05:20:09.275Z,51.10
2018-05-11T05:20:47.382Z,50.70
2018-05-11T05:21:24.598Z,50.60
2018-05-11T05:22:02.869Z,50.60
2018-05-11T05:22:40.977Z,50.70
2018-05-11T05:23:18.345Z,50.70
2018-05-11T05:23:55.594Z,50.70
2018-05-11T05:24:33.817Z,50.60
2018-05-11T05:25:11.158Z,50.60
2018-05-11T05:25:49.367Z,50.60
2018-05-11T05:26:27.489Z,50.60
2018-05-11T05:27:04.779Z,50.60
2018-05-11T05:27:42.125Z,50.50
2018-05-11T05:28:20.215Z,50.50
2018-05-11T05:28:57.601Z,50.40
2018-05-11T05:29:34.775Z,51.10
2018-05-11T05:30:12.025Z,50.50
2018-05-11T05:30:50.128Z,50.40
2018-05-11T05:31:28.318Z,50.40
2018-05-11T05:32:05.649Z,50.30
2018-05-11T05:32:44.065Z,50.40
2018-05-11T05:33:21.484Z,50.30
2018-05-11T05:33:58.808Z,50.40
2018-05-11T05:34:36.274Z,50.30
2018-05-11T05:35:14.497Z,50.80
2018-05-11T05:35:52.489Z,50.20
2018-05-11T05:36:29.839Z,50.20
2018-05-11T05:37:07.246Z,50.20
2018-05-11T05:37:44.535Z,50.20
2018-05-11T05:38:21.851Z,50.30
2018-05-11T05:38:59.426Z,50.30
2018-05-11T05:39:36.665Z,50.20
2018-05-11T05:40:13.959Z,50.20
2018-05-11T05:40:51.922Z,50.30
2018-05-11T05:41:29.258Z,50.30
2018-05-11T05:42:07.400Z,50.30
2018-05-11T05:42:44.854Z,50.30
2018-05-11T05:43:22.997Z,50.30
2018-05-11T05:44:00.344Z,50.30
2018-05-11T05:44:38.626Z,50.20
2018-05-11T05:45:16.634Z,50.30
2018-05-11T05:45:54.094Z,50.20
2018-05-11T05:46:32.405Z,50.30
2018-05-11T05:47:09.604Z,50.20
2018-05-11T05:47:46.929Z,50.70
2018-05-11T05:48:24.420Z,50.20
2018-05-11T05:49:01.769Z,50.30
2018-05-11T05:49:39.089Z,50.10
2018-05-11T05:50:16.521Z,50.20
2018-05-11T05:50:54.764Z,50.20
2018-05-11T05:51:32.122Z,50.10
2018-05-11T05:52:09.475Z,50.10
2018-05-11T05:52:47.714Z,50.00
2018-05-11T05:53:25.787Z,50.10
2018-05-11T05:54:03.101Z,50.00
2018-05-11T05:54:40.346Z,50.00
2018-05-11T05:55:18.530Z,50.10
2018-05-11T05:55:55.704Z,50.10
2018-05-11T05:56:33.090Z,50.00
2018-05-11T05:57:11.217Z,50.00
2018-05-11T05:57:49.379Z,50.00
2018-05-11T05:58:26.908Z,49.90
2018-05-11T05:59:05.195Z,50.00
2018-05-11T05:59:43.162Z,49.90
2018-05-11T06:00:20.569Z,49.80
2018-05-11T06:00:58.729Z,49.90
2018-05-11T06:01:36.075Z,49.80
2018-05-11T06:02:14.302Z,50.00
2018-05-11T06:02:51.618Z,50.00
2018-05-11T06:03:28.854Z,49.90
2018-05-11T06:04:06.935Z,49.90
2018-05-11T06:04:44.391Z,49.90
2018-05-11T06:05:21.790Z,49.90
2018-05-11T06:05:59.154Z,50.10
2018-05-11T06:06:36.526Z,50.20
2018-05-11T06:07:13.895Z,50.20
2018-05-11T06:07:51.354Z,50.20
2018-05-11T06:08:28.811Z,50.20
2018-05-11T06:09:06.127Z,50.20
2018-05-11T06:09:44.145Z,50.10
2018-05-11T06:10:22.255Z,50.00
2018-05-11T06:10:59.579Z,50.00
2018-05-11T06:11:37.719Z,50.00
2018-05-11T06:12:15.725Z,50.10
2018-05-11T06:12:53.222Z,50.00
2018-05-11T06:13:31.503Z,49.90
2018-05-11T06:14:08.911Z,49.90
2018-05-11T06:14:46.247Z,49.90
2018-05-11T06:15:24.426Z,49.90
2018-05-11T06:16:01.951Z,49.90
2018-05-11T06:16:39.399Z,49.90
2018-05-11T06:17:16.784Z,49.90
2018-05-11T06:17:54.079Z,49.90
2018-05-11T06:18:31.391Z,49.80
2018-05-11T06:19:08.636Z,49.90
2018-05-11T06:19:46.083Z,49.90
2018-05-11T06:20:23.365Z,50.00
2018-05-11T06:21:01.407Z,50.00
2018-05-11T06:21:38.803Z,50.00
2018-05-11T06:22:16.160Z,50.00
2018-05-11T06:22:53.559Z,50.00
2018-05-11T06:23:31.639Z,50.00
2018-05-11T06:24:09.106Z,50.00
2018-05-11T06:24:47.422Z,50.70
2018-05-11T06:25:24.903Z,50.00
2018-05-11T06:26:02.358Z,50.10
2018-05-11T06:26:39.783Z,50.20
2018-05-11T06:27:17.261Z,50.20
2018-05-11T06:27:55.326Z,50.20
2018-05-11T06:28:32.777Z,50.20
2018-05-11T06:29:10.267Z,50.20
2018-05-11T06:29:47.752Z,50.20
2018-05-11T06:30:25.855Z,50.20
2018-05-11T06:31:03.114Z,50.20
2018-05-11T06:31:40.537Z,50.20
2018-05-11T06:32:18.609Z,50.30
2018-05-11T06:32:55.826Z,50.10
2018-05-11T06:33:33.601Z,50.20
2018-05-11T06:34:11.015Z,50.10
2018-05-11T06:34:48.473Z,50.10
2018-05-11T06:35:25.837Z,50.10
2018-05-11T06:36:03.989Z,50.00
2018-05-11T06:36:41.451Z,50.00
2018-05-11T06:37:18.882Z,49.90
2018-05-11T06:37:56.370Z,49.90
2018-05-11T06:38:33.693Z,50.00
2018-05-11T06:39:11.771Z,50.00
2018-05-11T06:39:49.779Z,50.00
2018-05-11T06:40:27.245Z,49.90
2018-05-11T06:41:05.552Z,50.10
2018-05-11T06:41:42.921Z,50.10
2018-05-11T06:42:20.372Z,50.70
2018-05-11T06:42:57.759Z,50.10
2018-05-11T06:43:36.003Z,50.20
2018-05-11T06:44:13.322Z,50.20
2018-05-11T06:44:51.554Z,50.00
2018-05-11T06:45:28.741Z,50.10
2018-05-11T06:46:06.032Z,50.00
2018-05-11T06:46:44.407Z,50.30
2018-05-11T06:47:22.636Z,50.40
2018-05-11T06:48:00.012Z,50.40
2018-05-11T06:48:38.061Z,50.50
2018-05-11T06:49:15.465Z,50.50
2018-05-11T06:49:53.437Z,50.50
2018-05-11T06:50:30.774Z,50.50
2018-05-11T06:51:08.899Z,50.50
2018-05-11T06:51:46.289Z,50.50
2018-05-11T06:52:23.685Z,50.30
2018-05-11T06:53:01.735Z,50.30
2018-05-11T06:53:39.950Z,50.40
2018-05-11T06:54:17.333Z,50.40
2018-05-11T06:54:54.797Z,50.40
2018-05-11T06:55:32.044Z,50.50
2018-05-11T06:56:09.515Z,50.50
2018-05-11T06:56:46.805Z,50.70
2018-05-11T06:57:24.077Z,50.70
2018-05-11T06:58:01.463Z,50.70
2018-05-11T06:58:39.665Z,50.70
2018-05-11T06:59:17.053Z,50.70
2018-05-11T06:59:54.409Z,50.70
2018-05-11T07:00:32.542Z,50.80
2018-05-11T07:01:09.874Z,50.90
2018-05-11T07:01:48.101Z,51.00
2018-05-11T07:02:25.501Z,51.00
2018-05-11T07:03:03.564Z,50.80
2018-05-11T07:03:40.862Z,50.80
2018-05-11T07:04:18.941Z,50.90
2018-05-11T07:04:56.327Z,50.90
2018-05-11T07:05:34.299Z,51.00
2018-05-11T07:06:11.646Z,51.00
2018-05-11T07:06:49.055Z,51.00
2018-05-11T07:07:26.314Z,51.10
2018-05-11T07:08:03.761Z,51.10
2018-05-11T07:08:41.167Z,51.00
2018-05-11T07:09:18.367Z,51.00
2018-05-11T07:09:55.741Z,51.10
2018-05-11T07:10:33.161Z,51.10
2018-05-11T07:11:11.623Z,51.10
2018-05-11T07:11:49.022Z,51.00
2018-05-11T07:12:26.422Z,50.80
2018-05-11T07:13:03.904Z,50.80
2018-05-11T07:13:41.924Z,50.80
2018-05-11T07:14:19.073Z,50.80
2018-05-11T07:14:56.278Z,50.80
2018-05-11T07:15:33.724Z,50.70
2018-05-11T07:16:11.176Z,50.70
2018-05-11T07:16:48.671Z,50.60
2018-05-11T07:17:26.109Z,50.60
2018-05-11T07:18:03.518Z,50.50
2018-05-11T07:18:40.906Z,50.50
2018-05-11T07:19:18.117Z,50.40
2018-05-11T07:19:55.629Z,50.50
2018-05-11T07:20:32.865Z,50.50
2018-05-11T07:21:10.167Z,50.60
2018-05-11T07:21:48.358Z,50.70
2018-05-11T07:22:25.622Z,50.70
2018-05-11T07:23:03.714Z,51.00
2018-05-11T07:23:42.034Z,51.00
2018-05-11T07:24:19.535Z,51.00
2018-05-11T07:24:57.690Z,51.00
2018-05-11T07:25:35.831Z,51.10
2018-05-11T07:26:13.073Z,51.10
2018-05-11T07:26:51.247Z,51.20
2018-05-11T07:27:28.569Z,51.00
2018-05-11T07:28:05.874Z,51.30
2018-05-11T07:28:44.015Z,51.50
2018-05-11T07:29:21.343Z,51.50
2018-05-11T07:29:59.461Z,51.40
2018-05-11T07:30:36.783Z,51.30
2018-05-11T07:31:14.075Z,51.30
2018-05-11T07:31:51.348Z,51.20
2018-05-11T07:32:28.794Z,51.40
2018-05-11T07:33:06.389Z,51.50
2018-05-11T07:33:43.605Z,51.60
2018-05-11T07:34:21.041Z,51.70
2018-05-11T07:34:58.446Z,51.60
2018-05-11T07:35:35.857Z,51.70
2018-05-11T07:36:13.940Z,51.60
2018-05-11T07:36:52.049Z,51.70
2018-05-11T07:37:29.412Z,51.60
2018-05-11T07:38:06.899Z,51.70
2018-05-11T07:38:44.982Z,52.40
2018-05-11T07:39:22.257Z,51.80
2018-05-11T07:39:59.531Z,51.70
2018-05-11T07:40:37.723Z,51.50
2018-05-11T07:41:15.858Z,51.30
2018-05-11T07:41:53.312Z,51.30
2018-05-11T07:42:30.502Z,51.20
2018-05-11T07:43:07.961Z,51.10
2018-05-11T07:43:46.218Z,51.10
2018-05-11T07:44:23.598Z,51.00
2018-05-11T07:45:01.038Z,50.90
2018-05-11T07:45:38.330Z,50.80
2018-05-11T07:46:15.781Z,50.90
2018-05-11T07:46:53.841Z,51.00
2018-05-11T07:47:31.215Z,51.00
2018-05-11T07:48:09.345Z,51.10
2018-05-11T07:48:46.666Z,51.10
2018-05-11T07:49:24.087Z,51.10
2018-05-11T07:50:02.175Z,51.20
2018-05-11T07:50:40.391Z,51.20
2018-05-11T07:51:17.742Z,51.20
2018-05-11T07:51:55.926Z,51.40
2018-05-11T07:52:33.089Z,51.40
2018-05-11T07:53:11.292Z,51.50
2018-05-11T07:53:48.526Z,51.50
2018-05-11T07:54:25.956Z,51.50
2018-05-11T07:55:03.166Z,51.60
2018-05-11T07:55:40.412Z,51.50
2018-05-11T07:56:18.489Z,51.50
2018-05-11T07:56:55.845Z,51.50
2018-05-11T07:57:34.059Z,51.50
2018-05-11T07:58:11.394Z,51.40
2018-05-11T07:58:49.532Z,51.40
2018-05-11T07:59:26.877Z,51.40
2018-05-11T08:00:04.904Z,51.30
2018-05-11T08:00:42.241Z,51.30
2018-05-11T08:01:19.724Z,51.30
2018-05-11T08:01:57.877Z,51.50
2018-05-11T08:02:35.976Z,51.50
2018-05-11T08:03:13.921Z,51.60
2018-05-11T08:03:52.087Z,51.90
2018-05-11T08:04:29.577Z,51.90